Stations météo

réclame
Mon MeteoGroup
Vipiteno, Italie (16014): Température de l'air & dewpoint: 11.10.2017 09:00:00 - 17.10.2017 09:00:00 (CEST)Vipiteno, Italie (16014): Quantités de précipitations: 11.10.2017 09:00:00 - 17.10.2017 09:00:00 (CEST)
Date & Time tt [°C] td [°C] rr [mm]
17.10.2017 09:00:00 - - -
17.10.2017 08:00:00 0,6 -0,9 0,0
17.10.2017 07:00:00 0,4 -1,1 -
17.10.2017 06:00:00 1,1 -0,4 -
17.10.2017 05:00:00 0,8 -0,8 -
17.10.2017 04:00:00 2,2 0,4 -
17.10.2017 03:00:00 2,5 0,7 -
17.10.2017 02:00:00 2,8 1,0 0,0
17.10.2017 01:00:00 2,7 0,4 -
17.10.2017 00:00:00 3,9 1,1 -
16.10.2017 23:00:00 5,0 1,4 -
16.10.2017 22:00:00 5,9 1,6 -
16.10.2017 21:00:00 7,1 2,1 -
16.10.2017 20:00:00 9,2 3,3 -
16.10.2017 19:00:00 11,5 4,2 -
16.10.2017 18:00:00 13,2 4,5 -
16.10.2017 17:00:00 15,6 4,8 -
16.10.2017 16:00:00 17,6 5,4 -
16.10.2017 15:00:00 18,7 6,1 -
16.10.2017 14:00:00 18,2 6,3 -
16.10.2017 13:00:00 16,1 6,4 -
16.10.2017 12:00:00 13,2 8,2 -
16.10.2017 11:00:00 9,6 8,0 -
16.10.2017 10:00:00 6,4 4,9 -
16.10.2017 09:00:00 1,8 0,3 -
16.10.2017 08:00:00 1,5 0,0 0,0
16.10.2017 07:00:00 1,0 -0,5 -
16.10.2017 06:00:00 2,1 0,6 -
16.10.2017 05:00:00 1,8 0,2 -
16.10.2017 04:00:00 2,3 0,5 -
16.10.2017 03:00:00 2,5 0,5 -
16.10.2017 02:00:00 2,9 0,8 0,0
16.10.2017 01:00:00 3,9 1,6 -
16.10.2017 00:00:00 4,4 1,9 -
15.10.2017 23:00:00 4,8 1,8 -
15.10.2017 22:00:00 6,0 2,4 -
15.10.2017 21:00:00 7,3 3,1 -
15.10.2017 20:00:00 9,1 4,5 0,0
15.10.2017 19:00:00 11,2 5,0 -
15.10.2017 18:00:00 13,0 5,3 -
15.10.2017 17:00:00 15,7 5,8 -
15.10.2017 16:00:00 17,8 6,6 -
15.10.2017 15:00:00 18,6 7,0 -
15.10.2017 14:00:00 17,9 6,7 0,0
15.10.2017 13:00:00 16,0 7,7 -
15.10.2017 12:00:00 13,7 9,7 -
15.10.2017 11:00:00 11,0 9,4 -
15.10.2017 10:00:00 6,4 4,9 -
15.10.2017 09:00:00 2,7 1,2 -
15.10.2017 08:00:00 1,3 -0,2 0,0
15.10.2017 07:00:00 1,3 -0,2 -
15.10.2017 06:00:00 2,2 0,7 -
15.10.2017 05:00:00 3,0 1,5 -
15.10.2017 04:00:00 2,9 1,4 -
15.10.2017 03:00:00 3,9 2,4 -
15.10.2017 02:00:00 3,8 2,0 0,0
15.10.2017 01:00:00 4,4 2,2 -
15.10.2017 00:00:00 5,1 2,8 -
14.10.2017 23:00:00 5,6 2,9 -
14.10.2017 22:00:00 6,4 2,6 -
14.10.2017 21:00:00 7,7 3,1 -
14.10.2017 20:00:00 9,6 4,7 0,0
14.10.2017 19:00:00 11,9 5,7 -
14.10.2017 18:00:00 13,5 5,8 -
14.10.2017 17:00:00 16,5 6,0 -
14.10.2017 16:00:00 18,2 7,2 -
14.10.2017 15:00:00 19,0 5,7 -
14.10.2017 14:00:00 18,3 6,1 0,0
14.10.2017 13:00:00 16,3 6,1 -
14.10.2017 12:00:00 13,8 7,5 -
14.10.2017 11:00:00 10,7 9,1 -
14.10.2017 10:00:00 6,4 4,9 -
14.10.2017 09:00:00 3,1 1,6 -
14.10.2017 08:00:00 0,8 -0,7 0,0
14.10.2017 07:00:00 1,1 -0,4 -
14.10.2017 06:00:00 1,8 0,3 -
14.10.2017 05:00:00 1,5 -0,1 -
14.10.2017 04:00:00 2,8 1,3 -
14.10.2017 03:00:00 2,3 0,5 -
14.10.2017 02:00:00 2,6 0,5 0,0
14.10.2017 01:00:00 3,1 0,6 -
14.10.2017 00:00:00 3,8 0,8 -
13.10.2017 23:00:00 5,0 1,4 -
13.10.2017 22:00:00 6,1 1,8 -
13.10.2017 21:00:00 7,8 3,2 -
13.10.2017 20:00:00 8,4 3,0 0,0
13.10.2017 19:00:00 10,9 4,3 -
13.10.2017 18:00:00 14,0 5,0 -
13.10.2017 17:00:00 16,4 6,2 -
13.10.2017 16:00:00 16,7 6,1 -
13.10.2017 15:00:00 16,5 6,5 -
13.10.2017 14:00:00 15,0 7,5 0,0
13.10.2017 13:00:00 11,9 7,8 -
13.10.2017 12:00:00 9,9 8,0 -
13.10.2017 11:00:00 8,2 6,6 -
13.10.2017 10:00:00 6,1 4,6 -
13.10.2017 09:00:00 3,0 1,5 -
13.10.2017 08:00:00 2,5 1,0 0,0
13.10.2017 07:00:00 2,1 0,6 -
13.10.2017 06:00:00 2,7 1,2 -
13.10.2017 05:00:00 2,4 0,9 -
13.10.2017 04:00:00 2,7 1,2 -
13.10.2017 03:00:00 2,8 1,1 -
13.10.2017 02:00:00 3,4 1,7 0,0
13.10.2017 01:00:00 3,2 1,1 -
13.10.2017 00:00:00 4,1 1,8 -
12.10.2017 23:00:00 4,4 1,0 -
12.10.2017 22:00:00 6,3 2,5 -
12.10.2017 21:00:00 7,0 2,4 -
12.10.2017 20:00:00 9,1 3,6 -
12.10.2017 19:00:00 10,5 3,7 -
12.10.2017 18:00:00 13,3 4,4 -
12.10.2017 17:00:00 15,5 3,5 -
12.10.2017 16:00:00 16,7 5,9 -
12.10.2017 15:00:00 17,2 5,7 -
12.10.2017 14:00:00 16,1 6,2 -
12.10.2017 13:00:00 14,6 7,8 -
12.10.2017 12:00:00 11,4 9,6 -
12.10.2017 11:00:00 8,7 7,1 -
12.10.2017 10:00:00 5,8 4,3 -
12.10.2017 09:00:00 2,5 1,0 -
12.10.2017 08:00:00 1,3 -0,2 0,0
12.10.2017 07:00:00 0,7 -0,8 -
12.10.2017 06:00:00 1,0 -0,5 -
12.10.2017 05:00:00 1,7 0,2 -
12.10.2017 04:00:00 2,1 0,6 -
12.10.2017 03:00:00 2,1 0,6 -
12.10.2017 02:00:00 2,3 0,8 0,0
12.10.2017 01:00:00 2,9 1,2 -
12.10.2017 00:00:00 4,2 2,4 -
11.10.2017 23:00:00 5,0 2,7 -
11.10.2017 22:00:00 6,0 3,3 -
11.10.2017 21:00:00 7,4 3,8 -
11.10.2017 20:00:00 9,1 4,9 0,0
11.10.2017 19:00:00 10,4 5,1 -
11.10.2017 18:00:00 12,1 5,4 -
11.10.2017 17:00:00 13,8 5,9 -
11.10.2017 16:00:00 14,6 6,4 -
11.10.2017 15:00:00 14,8 5,5 -
11.10.2017 14:00:00 14,9 6,1 0,0
11.10.2017 13:00:00 12,7 6,0 -
11.10.2017 12:00:00 10,9 6,8 -
11.10.2017 11:00:00 8,8 7,2 -
11.10.2017 10:00:00 5,2 3,7 -
11.10.2017 09:00:00 1,9 0,4 -

tt = Température de l'air
td = dewpoint
rr = Quantités de précipitations

stations d'obs. à proximité